Time;durP1;ratioP1;P1;durP2;ratioP2;P2;SDS_P1;SDS_P2;PMS_P1;PMS_P2;Temp;Humidity;BMP_temperature;BMP_pressure;BME280_temperature;BME280_humidity;BME280_pressure;Samples;Min_cycle;Max_cycle;Signal;HPM_P1;HPM_P2
2021/10/01 00:01:08;;;;;;;16.27;8.13;;;;;;;12.08;67.90;95922.00;5002058;28;20045;-80
2021/10/01 00:03:33;;;;;;;17.20;7.82;;;;;;;12.02;68.73;95924.44;4999101;28;20038;-80
2021/10/01 00:05:59;;;;;;;21.77;8.60;;;;;;;12.02;68.39;95918.44;4993825;28;20415;-80
2021/10/01 00:08:24;;;;;;;21.75;7.18;;;;;;;12.03;68.49;95909.59;4993910;28;20030;-80
2021/10/01 00:10:50;;;;;;;20.55;8.43;;;;;;;12.15;68.13;95912.31;4993017;28;20049;-80
2021/10/01 00:13:15;;;;;;;23.70;8.60;;;;;;;12.18;68.00;95906.66;4992985;28;20056;-80
2021/10/01 00:15:43;;;;;;;13.88;9.00;;;;;;;12.23;67.93;95910.25;4992760;28;20046;-79
2021/10/01 00:18:09;;;;;;;23.00;7.97;;;;;;;12.15;67.97;95907.09;4977061;28;20049;-80
2021/10/01 00:20:34;;;;;;;14.85;7.90;;;;;;;12.11;68.48;95911.16;4994149;28;20038;-82
2021/10/01 00:23:00;;;;;;;23.65;8.30;;;;;;;12.16;68.14;95908.69;4976419;28;20517;-79
2021/10/01 00:25:25;;;;;;;12.82;7.90;;;;;;;12.23;67.76;95907.63;4980623;28;20031;-80
2021/10/01 00:27:51;;;;;;;9.38;7.43;;;;;;;12.31;67.69;95911.75;4980428;28;20418;-79
2021/10/01 00:30:20;;;;;;;13.43;7.95;;;;;;;12.35;67.47;95906.91;4980459;28;20027;-80
2021/10/01 00:32:46;;;;;;;15.15;7.60;;;;;;;12.26;67.80;95904.59;4995830;28;20038;-80
2021/10/01 00:35:11;;;;;;;14.45;7.88;;;;;;;12.25;68.03;95902.19;4995696;28;20096;-80
2021/10/01 00:37:37;;;;;;;14.27;7.78;;;;;;;12.14;68.35;95905.50;4995954;28;20403;-81
2021/10/01 00:40:04;;;;;;;38.30;8.45;;;;;;;12.11;68.66;95900.72;4995139;28;20583;-81
2021/10/01 00:42:29;;;;;;;17.55;8.07;;;;;;;11.97;69.17;95900.81;4963874;28;20034;-81
2021/10/01 00:44:55;;;;;;;10.90;6.88;;;;;;;11.89;69.46;95903.72;4998652;28;20061;-80
2021/10/01 00:47:20;;;;;;;17.85;8.10;;;;;;;11.97;69.36;95903.44;4997266;28;20081;-82
2021/10/01 00:49:45;;;;;;;19.25;8.75;;;;;;;12.02;69.22;95895.75;4996896;28;20509;-81
2021/10/01 00:52:11;;;;;;;8.48;7.57;;;;;;;11.83;69.63;95901.13;4980424;28;20050;-81
2021/10/01 00:57:18;;;;;;;13.25;7.88;;;;;;;11.81;69.95;95895.34;5233900;22;20162;-81
2021/10/01 00:59:43;;;;;;;12.50;7.63;;;;;;;11.91;70.07;95895.69;4993172;28;20042;-82
2021/10/01 01:02:09;;;;;;;16.10;7.60;;;;;;;11.89;69.93;95898.50;4963291;28;20461;-81
2021/10/01 01:04:34;;;;;;;17.08;7.88;;;;;;;11.85;69.93;95897.31;4997906;28;20057;-82
2021/10/01 01:07:10;;;;;;;21.38;7.75;;;;;;;11.86;69.93;95904.13;4947967;28;20603;-81
2021/10/01 01:09:55;;;;;;;26.52;7.70;;;;;;;11.82;70.23;95902.16;4997011;28;20042;-82
2021/10/01 01:12:42;;;;;;;14.88;7.68;;;;;;;11.83;70.20;95888.09;4997229;28;20553;-81
2021/10/01 01:15:21;;;;;;;16.58;7.07;;;;;;;11.91;69.71;95899.09;4996948;28;20120;-81
2021/10/01 01:17:54;;;;;;;12.68;7.22;;;;;;;11.87;70.15;95890.06;4965291;28;20030;-81
2021/10/01 01:20:23;;;;;;;13.80;8.02;;;;;;;11.84;70.23;95895.72;4978741;28;20030;-81
2021/10/01 01:22:48;;;;;;;10.35;7.60;;;;;;;11.79;70.79;95897.38;4977950;28;20046;-80
2021/10/01 01:28:14;;;;;;;12.75;7.05;;;;;;;11.84;70.60;95890.50;5004948;28;20042;-80
2021/10/01 01:30:48;;;;;;;17.00;6.70;;;;;;;11.79;70.63;95879.94;5001705;28;20070;-80
2021/10/01 01:33:15;;;;;;;8.38;7.05;;;;;;;11.85;70.50;95892.09;5012195;28;20058;-80
2021/10/01 01:35:42;;;;;;;10.32;7.20;;;;;;;11.86;70.55;95888.47;4988693;28;20053;-80
2021/10/01 01:38:12;;;;;;;20.77;8.27;;;;;;;11.81;70.62;95888.31;4987644;28;20034;-80
2021/10/01 01:40:38;;;;;;;17.83;8.10;;;;;;;11.81;70.69;95885.72;5005269;28;20045;-80
2021/10/01 01:43:06;;;;;;;22.17;8.80;;;;;;;11.77;71.13;95883.72;4988987;28;20523;-80
2021/10/01 01:45:35;;;;;;;12.48;7.20;;;;;;;11.75;71.02;95889.16;5003949;28;20049;-83
2021/10/01 01:48:01;;;;;;;11.68;7.13;;;;;;;11.76;71.16;95887.34;5006255;28;20030;-79
2021/10/01 01:50:26;;;;;;;12.00;8.45;;;;;;;11.78;70.98;95890.53;5004873;28;20642;-79
2021/10/01 01:52:52;;;;;;;8.57;6.97;;;;;;;11.82;70.80;95882.09;5004125;28;20092;-82
2021/10/01 01:55:17;;;;;;;14.18;6.97;;;;;;;11.90;70.69;95894.88;5030961;23;20473;-82
2021/10/01 01:57:47;;;;;;;14.07;7.22;;;;;;;11.85;70.79;95880.88;4985895;28;20516;-81
2021/10/01 02:00:12;;;;;;;14.13;7.40;;;;;;;11.82;70.70;95887.31;5000268;28;20054;-82
2021/10/01 02:02:44;;;;;;;13.23;7.63;;;;;;;11.82;70.77;95889.91;4951780;28;20023;-81
2021/10/01 02:05:10;;;;;;;10.40;7.28;;;;;;;11.89;71.03;95892.50;4969438;28;20049;-82
2021/10/01 02:07:36;;;;;;;10.38;7.68;;;;;;;11.88;70.70;95896.91;4951905;28;20047;-82
2021/10/01 02:10:02;;;;;;;14.90;7.03;;;;;;;11.90;70.67;95894.09;4967829;28;20042;-80
2021/10/01 02:12:29;;;;;;;17.08;7.38;;;;;;;11.94;70.34;95885.63;4984680;28;20038;-80
2021/10/01 02:14:55;;;;;;;18.02;6.95;;;;;;;12.01;70.33;95886.34;4985824;28;20462;-80
2021/10/01 02:17:20;;;;;;;12.73;7.18;;;;;;;12.01;70.13;95894.16;4968465;28;20026;-80
2021/10/01 02:19:46;;;;;;;10.00;7.20;;;;;;;12.07;70.23;95889.13;4986790;28;20066;-80
2021/10/01 02:22:12;;;;;;;10.60;6.88;;;;;;;12.06;69.68;95895.34;4985619;28;20058;-80
2021/10/01 02:24:37;;;;;;;13.13;7.63;;;;;;;12.11;69.85;95892.91;4985439;28;20062;-79
2021/10/01 02:27:20;;;;;;;20.30;6.75;;;;;;;12.10;69.61;95886.09;4966989;28;20064;-80
2021/10/01 02:29:51;;;;;;;11.00;6.30;;;;;;;12.11;69.68;95885.06;4969216;28;20043;-80
2021/10/01 02:32:22;;;;;;;10.93;6.72;;;;;;;12.08;69.82;95890.72;5001046;28;20057;-80
2021/10/01 02:37:23;;;;;;;10.52;6.22;;;;;;;12.07;69.74;95889.13;5148904;23;20061;-81
2021/10/01 02:39:49;;;;;;;9.18;6.47;;;;;;;12.06;69.77;95890.16;5067572;22;20046;-81
2021/10/01 02:42:15;;;;;;;19.67;7.10;;;;;;;11.99;70.25;95883.16;4995882;28;20045;-81
2021/10/01 02:44:41;;;;;;;12.68;7.03;;;;;;;12.11;69.82;95885.88;4973360;28;20038;-82
2021/10/01 02:47:07;;;;;;;12.90;7.00;;;;;;;12.17;69.58;95892.03;4958185;28;20046;-82
2021/10/01 02:49:32;;;;;;;26.45;7.75;;;;;;;12.19;69.25;95888.19;4953462;28;20029;-81
2021/10/01 02:51:59;;;;;;;20.80;6.53;;;;;;;12.28;69.19;95884.31;4970792;28;20046;-80
2021/10/01 02:54:30;;;;;;;16.83;7.35;;;;;;;12.31;69.01;95896.09;4969458;28;20517;-82
2021/10/01 02:57:00;;;;;;;11.57;7.15;;;;;;;12.25;69.01;95894.38;4959218;28;20558;-82
2021/10/01 02:59:26;;;;;;;15.35;7.03;;;;;;;12.30;68.85;95891.91;4967530;28;20030;-81
2021/10/01 03:01:51;;;;;;;13.75;6.32;;;;;;;12.23;69.19;95888.56;4958892;28;20039;-82
2021/10/01 03:04:17;;;;;;;10.20;6.78;;;;;;;12.37;68.76;95895.25;4967032;28;20030;-82
2021/10/01 03:06:47;;;;;;;7.93;6.50;;;;;;;12.37;68.57;95887.44;4967921;28;20047;-81
2021/10/01 03:09:12;;;;;;;8.85;6.38;;;;;;;12.45;68.48;95889.75;4967422;28;20033;-81
2021/10/01 03:11:38;;;;;;;8.50;6.47;;;;;;;12.44;68.14;95893.38;4969038;28;20039;-82
2021/10/01 03:14:04;;;;;;;18.35;6.72;;;;;;;12.42;68.71;95892.78;4967689;28;20097;-82
2021/10/01 03:16:36;;;;;;;12.35;7.32;;;;;;;12.39;68.67;95895.84;4967364;28;20054;-80
2021/10/01 03:19:01;;;;;;;18.95;8.05;;;;;;;12.51;68.25;95896.69;4959577;28;20066;-81
2021/10/01 03:21:27;;;;;;;10.93;7.13;;;;;;;12.47;68.17;95892.94;4967390;28;20042;-81
2021/10/01 03:24:02;;;;;;;16.00;6.68;;;;;;;12.59;68.16;95891.22;4983725;28;20514;-81
2021/10/01 03:26:27;;;;;;;10.15;6.85;;;;;;;12.62;67.87;95893.38;4966847;28;20053;-81
2021/10/01 03:28:56;;;;;;;18.48;7.10;;;;;;;12.60;68.08;95900.63;4965458;28;20490;-81
2021/10/01 03:31:24;;;;;;;10.20;6.63;;;;;;;12.68;67.64;95891.69;4984480;28;20110;-81
2021/10/01 03:33:49;;;;;;;17.42;9.38;;;;;;;12.76;67.56;95890.63;4967753;28;20030;-81
2021/10/01 03:36:15;;;;;;;10.90;6.72;;;;;;;12.71;67.58;95893.91;4983198;28;20043;-80
2021/10/01 03:38:40;;;;;;;13.30;6.20;;;;;;;12.66;68.11;95888.50;4990735;28;20026;-79
2021/10/01 03:41:06;;;;;;;16.98;6.93;;;;;;;12.70;67.81;95889.69;4991833;28;20035;-79
2021/10/01 03:43:31;;;;;;;11.13;6.35;;;;;;;12.55;68.43;95892.66;4963200;28;20585;-80
2021/10/01 03:46:00;;;;;;;9.20;6.60;;;;;;;12.68;67.93;95885.69;4968239;28;20034;-81
2021/10/01 03:48:25;;;;;;;12.73;7.32;;;;;;;12.79;67.42;95880.53;4969210;28;20117;-81
2021/10/01 03:50:51;;;;;;;9.73;6.70;;;;;;;12.90;67.00;95879.00;4983932;28;20084;-81
2021/10/01 03:53:17;;;;;;;9.30;7.35;;;;;;;12.99;66.80;95877.69;4965862;28;20043;-81
2021/10/01 03:55:42;;;;;;;13.38;7.97;;;;;;;13.09;66.84;95887.59;4962293;28;20034;-82
2021/10/01 03:58:08;;;;;;;13.63;8.15;;;;;;;13.16;66.33;95889.09;4966179;28;20461;-81
2021/10/01 04:00:35;;;;;;;19.17;6.97;;;;;;;13.20;65.72;95885.09;5582002;23;20050;-79
2021/10/01 04:03:00;;;;;;;10.20;7.05;;;;;;;13.27;65.82;95884.19;4969153;28;20153;-79
2021/10/01 04:05:26;;;;;;;16.55;7.60;;;;;;;13.23;65.52;95889.06;4967346;28;20032;-82
2021/10/01 04:07:51;;;;;;;13.00;7.00;;;;;;;13.27;65.85;95884.19;4951653;28;20089;-82
2021/10/01 04:10:49;;;;;;;13.50;7.60;;;;;;;13.31;65.64;95883.50;4976344;28;20415;-82
2021/10/01 04:13:15;;;;;;;9.88;7.50;;;;;;;13.34;65.26;95884.88;4956524;28;20047;-82
2021/10/01 04:15:41;;;;;;;18.73;8.20;;;;;;;13.37;64.99;95884.47;4970757;28;20058;-82
2021/10/01 04:18:06;;;;;;;10.23;7.88;;;;;;;13.38;64.68;95886.84;4972603;28;20039;-82
2021/10/01 04:20:36;;;;;;;20.10;8.50;;;;;;;13.41;65.05;95883.78;4972591;28;20062;-82
2021/10/01 04:23:02;;;;;;;17.92;7.60;;;;;;;13.43;64.76;95886.97;4987116;28;20113;-82
2021/10/01 04:27:54;;;;;;;17.83;8.45;;;;;;;13.44;64.28;95895.59;5022704;23;20062;-82
2021/10/01 04:30:20;;;;;;;17.83;7.72;;;;;;;13.41;63.99;95890.81;4990379;28;20041;-83
2021/10/01 04:32:49;;;;;;;18.98;8.43;;;;;;;13.42;64.25;95893.22;4993083;28;20034;-83
2021/10/01 04:35:15;;;;;;;12.90;8.60;;;;;;;13.44;63.58;95890.38;4990415;28;20070;-82
2021/10/01 04:37:41;;;;;;;17.33;8.00;;;;;;;13.43;64.05;95894.81;4988770;28;20038;-82
2021/10/01 04:40:07;;;;;;;22.13;8.23;;;;;;;13.46;64.11;95902.19;4957949;28;20045;-84
2021/10/01 04:42:32;;;;;;;23.40;9.55;;;;;;;13.47;64.10;95895.16;4937948;28;20045;-85
2021/10/01 04:44:57;;;;;;;22.67;8.98;;;;;;;13.45;63.58;95900.59;4970116;28;20038;-86
2021/10/01 04:47:26;;;;;;;16.08;8.70;;;;;;;13.46;63.62;95904.00;4985640;28;20498;-85
2021/10/01 04:49:54;;;;;;;29.90;9.52;;;;;;;13.42;63.55;95898.44;4987312;28;20090;-85
2021/10/01 04:52:20;;;;;;;20.23;8.20;;;;;;;13.36;64.18;95899.34;4956436;28;20034;-85
2021/10/01 04:54:45;;;;;;;21.02;8.70;;;;;;;13.39;63.60;95905.94;5011482;23;20493;-84
2021/10/01 04:57:11;;;;;;;21.75;8.30;;;;;;;13.38;64.09;95906.94;4979013;28;20051;-86
2021/10/01 04:59:37;;;;;;;23.83;8.25;;;;;;;13.35;64.30;95912.63;4978244;28;20062;-85
2021/10/01 05:02:03;;;;;;;18.75;9.10;;;;;;;13.26;64.42;95919.97;4958149;29;20051;-84
2021/10/01 05:04:28;;;;;;;20.95;9.80;;;;;;;13.13;64.82;95920.09;4967663;28;20039;-85
2021/10/01 05:06:54;;;;;;;25.58;9.73;;;;;;;13.07;64.73;95913.94;4958841;28;20538;-83
2021/10/01 05:09:25;;;;;;;16.23;9.38;;;;;;;13.01;64.86;95925.25;4941936;28;20027;-84
2021/10/01 05:11:51;;;;;;;20.67;10.13;;;;;;;12.90;65.18;95926.00;4956402;29;20698;-84
2021/10/01 05:14:17;;;;;;;24.98;9.85;;;;;;;12.83;65.90;95930.47;4955472;28;20151;-84
2021/10/01 05:16:44;;;;;;;16.88;9.10;;;;;;;12.69;66.32;95935.06;4940002;29;20039;-83
2021/10/01 05:19:10;;;;;;;15.77;10.13;;;;;;;12.61;66.70;95924.91;4956606;28;20034;-85
2021/10/01 05:21:35;;;;;;;27.90;11.60;;;;;;;12.66;66.73;95934.69;4959638;29;20035;-85
2021/10/01 05:24:01;;;;;;;21.15;10.05;;;;;;;12.77;66.64;95926.16;4959398;28;20043;-83
2021/10/01 05:26:26;;;;;;;17.75;10.75;;;;;;;12.80;65.81;95938.75;4956864;29;20031;-83
2021/10/01 05:28:53;;;;;;;27.42;10.38;;;;;;;12.77;66.51;95934.78;4956722;29;20043;-82
2021/10/01 05:31:19;;;;;;;25.52;11.55;;;;;;;12.74;66.36;95932.59;4957179;28;20039;-82
2021/10/01 05:33:45;;;;;;;18.80;10.60;;;;;;;12.70;66.86;95934.06;4957419;28;20046;-86
2021/10/01 05:36:10;;;;;;;22.45;11.27;;;;;;;12.78;66.56;95932.97;4973962;28;20027;-86
2021/10/01 05:38:36;;;;;;;14.70;10.50;;;;;;;12.87;66.21;95932.47;4958668;28;20039;-88
2021/10/01 05:41:01;;;;;;;44.15;12.43;;;;;;;12.91;65.69;95935.44;4940194;29;20130;-86
2021/10/01 05:43:27;;;;;;;29.33;11.38;;;;;;;12.83;66.35;95946.16;4957751;28;20043;-83
2021/10/01 05:45:54;;;;;;;25.42;12.30;;;;;;;12.78;66.08;95943.41;4957474;29;20545;-83
2021/10/01 05:48:23;;;;;;;25.33;12.18;;;;;;;12.77;66.85;95949.63;4959094;29;20043;-83
2021/10/01 05:50:54;;;;;;;26.98;11.55;;;;;;;12.72;66.55;95950.28;5315411;23;20080;-83
2021/10/01 05:53:38;;;;;;;15.98;9.57;;;;;;;12.80;66.58;95942.16;5005458;28;20193;-83
2021/10/01 05:56:07;;;;;;;16.65;9.35;;;;;;;12.88;66.36;95948.91;4999443;28;20104;-84
2021/10/01 05:58:37;;;;;;;25.23;9.90;;;;;;;12.90;66.50;95944.28;5020626;28;20501;-83
2021/10/01 06:01:03;;;;;;;19.90;8.20;;;;;;;12.89;66.53;95943.47;5013466;28;20061;-87
2021/10/01 06:03:29;;;;;;;16.23;8.20;;;;;;;12.92;66.34;95944.84;4998461;28;20143;-82
2021/10/01 06:05:54;;;;;;;18.13;8.05;;;;;;;13.00;66.23;95941.94;5013958;28;20520;-81
2021/10/01 06:08:22;;;;;;;10.75;6.85;;;;;;;13.06;65.91;95940.28;5013472;28;20037;-87
2021/10/01 06:10:48;;;;;;;17.92;7.90;;;;;;;13.06;65.82;95951.53;4994836;28;20038;-83
2021/10/01 06:13:13;;;;;;;16.20;9.18;;;;;;;12.99;66.57;95956.00;4996875;28;20509;-80
2021/10/01 06:15:39;;;;;;;18.25;7.90;;;;;;;13.10;65.56;95952.66;5014497;28;20029;-81
2021/10/01 06:18:04;;;;;;;16.77;8.60;;;;;;;13.20;65.45;95955.59;4999826;28;20072;-81
2021/10/01 06:20:30;;;;;;;15.15;8.32;;;;;;;13.33;65.22;95959.84;5016234;28;20042;-81
2021/10/01 06:22:55;;;;;;;17.70;8.07;;;;;;;13.31;64.45;95958.47;5012599;28;20422;-80
2021/10/01 06:25:23;;;;;;;15.80;6.25;;;;;;;13.26;64.58;95964.38;5010983;28;20030;-84
2021/10/01 06:27:49;;;;;;;7.80;6.50;;;;;;;13.31;64.25;95959.25;4997530;28;20084;-82
2021/10/01 06:30:19;;;;;;;11.50;6.32;;;;;;;13.41;64.40;95963.97;5012855;28;20080;-82
2021/10/01 06:32:45;;;;;;;14.45;6.50;;;;;;;13.61;63.66;95964.50;5014453;28;20052;-83
2021/10/01 06:35:10;;;;;;;11.75;6.80;;;;;;;13.51;63.38;95970.28;5012931;28;20026;-84
2021/10/01 06:37:36;;;;;;;15.75;6.95;;;;;;;13.59;62.94;95969.16;4997765;28;20080;-82
2021/10/01 06:40:03;;;;;;;14.95;7.28;;;;;;;13.85;62.45;95972.44;4989205;28;20041;-84
2021/10/01 06:42:29;;;;;;;18.25;6.78;;;;;;;13.89;62.07;95976.97;4978241;28;20041;-80
2021/10/01 06:44:56;;;;;;;20.60;7.50;;;;;;;14.08;61.16;95977.72;5011969;28;20041;-82
2021/10/01 06:48:10;;;;;;;15.48;6.97;;;;;;;14.30;60.09;95983.19;4978496;28;20034;-84
2021/10/01 08:19:46;;;;;;;10.27;6.15;;;;;;;14.19;46.22;95965.69;4995229;28;20072;-80
2021/10/01 08:22:13;;;;;;;14.90;5.90;;;;;;;14.33;45.49;95962.63;5006935;28;20042;-79
2021/10/01 08:24:39;;;;;;;19.23;6.40;;;;;;;14.49;45.01;95965.63;4993631;28;20473;-78
2021/10/01 08:27:04;;;;;;;19.75;6.22;;;;;;;14.53;44.76;95961.50;5009593;28;20030;-79
2021/10/01 08:29:30;;;;;;;19.52;6.70;;;;;;;14.20;44.23;95965.44;5009984;28;20041;-79
2021/10/01 08:32:00;;;;;;;22.33;6.10;;;;;;;14.12;43.96;95960.53;4976351;28;20458;-80
2021/10/01 08:34:27;;;;;;;9.85;6.03;;;;;;;13.97;44.68;95970.63;4977255;28;20231;-78
2021/10/01 08:36:52;;;;;;;9.32;6.13;;;;;;;14.02;44.57;95955.06;5010974;28;20390;-79
2021/10/01 08:39:18;;;;;;;15.25;6.57;;;;;;;14.02;43.62;95955.88;5009208;28;20512;-81
2021/10/01 08:41:46;;;;;;;16.38;5.78;;;;;;;14.00;42.88;95967.59;5008730;28;20136;-79
2021/10/01 08:44:11;;;;;;;15.98;5.72;;;;;;;13.91;42.54;95963.69;4992767;28;20037;-80
2021/10/01 08:46:37;;;;;;;16.70;6.72;;;;;;;13.73;43.15;95962.72;5012748;28;20030;-81
2021/10/01 08:49:04;;;;;;;17.20;5.60;;;;;;;13.93;42.55;95961.63;4980455;28;20026;-81
2021/10/01 08:51:29;;;;;;;12.40;5.90;;;;;;;14.17;41.05;95962.50;4996084;28;20088;-81
2021/10/01 08:53:58;;;;;;;11.85;5.60;;;;;;;14.02;41.83;95965.53;4980257;28;20042;-80
2021/10/01 08:56:24;;;;;;;36.85;7.50;;;;;;;13.99;42.65;95960.72;4996724;28;20044;-77
2021/10/01 08:58:50;;;;;;;15.38;6.22;;;;;;;13.93;43.49;95959.03;5012400;28;20128;-79
2021/10/01 09:01:15;;;;;;;19.35;5.57;;;;;;;14.27;42.92;95958.28;4980511;28;20478;-76
2021/10/01 09:03:41;;;;;;;9.05;5.10;;;;;;;14.68;40.76;95965.25;4997088;28;20030;-79
2021/10/01 09:06:07;;;;;;;21.25;5.43;;;;;;;14.75;41.22;95959.91;5012783;28;20034;-82
2021/10/01 09:08:34;;;;;;;20.80;5.63;;;;;;;14.75;41.28;95969.56;4995723;28;20516;-80
2021/10/01 09:11:01;;;;;;;10.52;6.18;;;;;;;14.65;41.17;95964.94;5012926;28;20030;-80
2021/10/01 09:13:27;;;;;;;16.02;5.97;;;;;;;14.85;40.04;95959.34;5014623;28;20030;-81
2021/10/01 09:16:03;;;;;;;11.23;5.30;;;;;;;14.74;40.32;95957.50;5015465;28;20409;-78
2021/10/01 09:18:31;;;;;;;8.30;5.03;;;;;;;14.69;40.92;95966.84;5016817;28;20088;-82
2021/10/01 09:21:10;;;;;;;6.78;4.85;;;;;;;15.00;39.72;95957.03;5018371;28;20030;-85
2021/10/01 09:23:42;;;;;;;6.43;5.07;;;;;;;14.76;39.59;95966.72;5021242;28;20046;-78
2021/10/01 09:26:16;;;;;;;19.50;5.43;;;;;;;14.38;40.23;95975.81;5007891;28;20045;-81
2021/10/01 09:28:58;;;;;;;17.67;5.57;;;;;;;14.22;41.66;95971.25;5019019;28;20472;-81
2021/10/01 09:31:36;;;;;;;;;;;;;;;14.33;41.33;95962.63;5017123;28;20040;-78
2021/10/01 09:34:12;;;;;;;8.90;4.97;;;;;;;14.50;41.38;95959.34;5018017;28;19917;-80
2021/10/01 09:37:00;;;;;;;12.70;4.93;;;;;;;14.62;41.27;95955.69;5016012;28;20100;-79
2021/10/01 09:39:27;;;;;;;6.85;5.00;;;;;;;14.85;41.82;95954.88;5000227;28;20042;-80
2021/10/01 09:41:52;;;;;;;11.27;5.40;;;;;;;15.17;40.40;95938.75;5016227;28;20038;-80
2021/10/01 09:44:21;;;;;;;7.05;4.80;;;;;;;14.86;40.86;95948.63;4999722;28;20041;-80
2021/10/01 09:46:50;;;;;;;14.10;5.10;;;;;;;14.84;41.15;95948.06;5014336;28;20493;-80
2021/10/01 09:49:17;;;;;;;26.25;5.45;;;;;;;14.92;40.51;95950.31;5030570;28;20092;-80
2021/10/01 09:51:54;;;;;;;8.95;5.22;;;;;;;14.83;40.45;95946.47;5014122;28;20129;-79
2021/10/01 09:54:21;;;;;;;13.07;5.25;;;;;;;15.18;40.07;95932.50;5014869;28;20042;-79
2021/10/01 09:56:46;;;;;;;16.35;6.13;;;;;;;15.41;40.01;95923.72;5012450;28;20029;-79
2021/10/01 09:59:15;;;;;;;15.40;6.07;;;;;;;15.60;39.90;95928.56;5014092;28;20041;-78
2021/10/01 10:02:04;;;;;;;13.65;5.22;;;;;;;15.23;40.01;95932.56;5011729;28;20438;-80
2021/10/01 10:04:34;;;;;;;7.53;5.38;;;;;;;15.49;39.39;95929.41;5014142;28;20097;-80
2021/10/01 10:07:20;;;;;;;9.68;5.18;;;;;;;15.73;38.44;95929.31;4987574;28;20041;-78
2021/10/01 10:10:03;;;;;;;11.43;4.32;;;;;;;15.32;38.80;95933.81;5013543;28;20029;-79
2021/10/01 10:12:36;;;;;;;13.77;4.75;;;;;;;15.14;38.73;95941.84;4996540;28;20545;-79
2021/10/01 10:15:04;;;;;;;12.10;4.90;;;;;;;15.52;37.27;95936.81;4979861;28;20116;-79
2021/10/01 10:17:30;;;;;;;14.65;5.43;;;;;;;15.84;37.41;95931.09;4996449;28;20044;-79
2021/10/01 10:19:59;;;;;;;13.68;4.85;;;;;;;15.91;37.47;95929.09;4996034;28;20041;-79
2021/10/01 10:22:28;;;;;;;22.63;5.10;;;;;;;16.16;36.75;95929.50;4995609;28;20042;-79
2021/10/01 10:24:54;;;;;;;6.40;4.70;;;;;;;16.39;36.19;95932.97;5012264;28;20030;-79
2021/10/01 10:27:20;;;;;;;8.23;4.53;;;;;;;16.64;35.89;95916.81;4996740;28;20336;-79
2021/10/01 10:29:46;;;;;;;16.50;5.03;;;;;;;16.71;35.51;95914.81;5016633;28;20025;-79
2021/10/01 10:32:13;;;;;;;6.75;5.18;;;;;;;16.67;35.32;95922.38;5000823;28;20113;-78
2021/10/01 10:34:51;;;;;;;11.00;5.40;;;;;;;16.37;36.15;95920.09;4999829;28;20101;-78
2021/10/01 10:37:17;;;;;;;8.52;4.88;;;;;;;16.52;35.98;95916.91;4999880;28;20034;-78
2021/10/01 10:39:51;;;;;;;11.02;5.45;;;;;;;16.76;36.21;95904.41;4999793;28;20030;-79
2021/10/01 10:42:31;;;;;;;12.50;4.90;;;;;;;16.94;35.74;95904.09;5014981;28;20092;-79
2021/10/01 10:45:17;;;;;;;11.82;5.97;;;;;;;16.54;36.85;95914.81;5011150;28;20041;-78
2021/10/01 10:47:56;;;;;;;10.25;5.32;;;;;;;16.00;37.64;95904.06;5013585;28;20115;-80
2021/10/01 10:50:35;;;;;;;18.52;5.80;;;;;;;16.00;37.87;95908.53;5013411;28;20034;-79
2021/10/01 10:53:04;;;;;;;13.38;5.00;;;;;;;16.21;37.82;95905.16;4997597;28;20038;-80
2021/10/01 10:55:29;;;;;;;15.80;5.75;;;;;;;16.49;37.41;95897.19;5014022;28;20617;-80
2021/10/01 10:57:55;;;;;;;11.18;5.43;;;;;;;16.75;37.16;95895.69;5015790;28;20045;-79
2021/10/01 11:00:41;;;;;;;14.93;5.03;;;;;;;17.07;36.30;95887.94;5013328;28;20536;-80
2021/10/01 11:03:19;;;;;;;12.52;5.18;;;;;;;17.17;36.25;95891.72;5015600;28;20188;-79
2021/10/01 11:05:45;;;;;;;14.18;4.78;;;;;;;17.36;35.40;95879.81;5015149;28;20026;-80
2021/10/01 11:08:21;;;;;;;11.57;5.40;;;;;;;17.69;35.29;95884.91;5015112;28;20520;-79
2021/10/01 11:10:47;;;;;;;12.43;5.10;;;;;;;17.90;34.98;95883.25;5013435;28;20572;-79
2021/10/01 11:13:18;;;;;;;12.13;5.40;;;;;;;18.02;34.73;95877.00;5016919;28;20048;-79
2021/10/01 11:16:09;;;;;;;12.85;4.90;;;;;;;18.10;34.67;95877.34;5016256;28;20025;-79
2021/10/01 11:18:34;;;;;;;7.13;5.07;;;;;;;18.24;34.41;95882.97;5014639;28;20050;-80
2021/10/01 11:21:23;;;;;;;12.23;5.10;;;;;;;18.27;34.27;95885.09;5000184;28;20064;-82
2021/10/01 11:23:55;;;;;;;10.10;6.03;;;;;;;17.93;33.91;95885.38;4981110;28;20053;-80
2021/10/01 11:26:25;;;;;;;6.57;4.87;;;;;;;17.77;34.52;95875.78;5018815;28;20029;-81
2021/10/01 11:28:50;;;;;;;9.38;5.03;;;;;;;17.66;34.96;95869.59;5022296;28;20537;-81
2021/10/01 11:31:15;;;;;;;16.77;4.78;;;;;;;17.51;35.51;95889.69;5000905;28;20034;-79
2021/10/01 11:33:48;;;;;;;12.80;5.22;;;;;;;17.28;36.38;95873.19;5006396;28;20038;-79
2021/10/01 11:36:13;;;;;;;9.00;5.07;;;;;;;17.12;36.81;95865.41;5014971;28;20030;-79
2021/10/01 11:38:39;;;;;;;16.38;5.90;;;;;;;17.18;36.75;95862.56;5012420;28;20535;-79
2021/10/01 11:41:14;;;;;;;14.48;5.10;;;;;;;17.12;36.48;95860.13;4994483;28;20029;-78
2021/10/01 11:43:46;;;;;;;9.35;5.30;;;;;;;16.57;37.85;95855.78;5010063;28;20045;-78
2021/10/01 11:46:12;;;;;;;11.70;5.10;;;;;;;16.80;37.73;95851.13;4993236;28;20034;-78
2021/10/01 11:48:38;;;;;;;11.15;4.90;;;;;;;16.87;37.74;95856.19;4993995;28;20303;-78
2021/10/01 11:51:09;;;;;;;6.97;5.10;;;;;;;16.51;38.55;95852.28;4992808;28;20030;-78
2021/10/01 11:53:36;;;;;;;16.67;5.63;;;;;;;16.53;38.92;95850.22;4993360;28;20113;-78
2021/10/01 11:56:04;;;;;;;5.82;5.25;;;;;;;16.58;38.03;95846.84;4993862;28;20033;-79
2021/10/01 11:58:31;;;;;;;11.88;5.53;;;;;;;16.62;38.69;95853.22;5009359;28;20124;-78
2021/10/01 12:01:22;;;;;;;23.50;6.05;;;;;;;16.71;38.23;95842.06;5008958;28;20026;-77
2021/10/01 12:03:49;;;;;;;9.82;5.57;;;;;;;16.99;37.79;95835.81;4992665;28;20112;-78
2021/10/01 12:10:12;;;;;;;12.02;5.63;;;;;;;17.26;36.80;95846.38;5009313;28;20104;-78
2021/10/01 12:12:56;;;;;;;8.90;5.97;;;;;;;17.25;37.11;95826.38;5006965;28;20034;-78
2021/10/01 12:15:48;;;;;;;22.58;5.45;;;;;;;17.30;36.98;95836.13;5008287;28;20046;-78
2021/10/01 12:18:38;;;;;;;12.30;5.22;;;;;;;17.14;36.98;95840.44;4999005;28;20033;-78
2021/10/01 12:21:17;;;;;;;14.60;5.55;;;;;;;17.13;37.26;95841.50;5010462;28;20029;-78
2021/10/01 12:23:45;;;;;;;10.70;5.10;;;;;;;17.05;36.83;95834.03;5012213;28;20433;-78
2021/10/01 12:26:16;;;;;;;6.20;4.80;;;;;;;16.87;37.25;95834.38;5011946;28;20511;-77
2021/10/01 12:28:55;;;;;;;25.88;5.25;;;;;;;16.74;38.21;95823.19;5011348;28;20055;-77
2021/10/01 12:31:33;;;;;;;10.35;5.60;;;;;;;17.06;37.65;95831.16;5010649;28;20145;-78
2021/10/01 12:34:00;;;;;;;15.55;5.18;;;;;;;17.26;37.19;95822.69;5009912;28;20037;-77
2021/10/01 12:36:26;;;;;;;12.73;5.20;;;;;;;17.34;36.95;95824.88;5011711;28;20030;-78
2021/10/01 12:38:53;;;;;;;15.35;6.10;;;;;;;17.38;36.67;95831.19;4995311;28;20096;-76
2021/10/01 12:41:19;;;;;;;13.95;5.32;;;;;;;17.50;36.39;95822.38;4993185;28;20126;-76
2021/10/01 12:43:46;;;;;;;17.27;5.47;;;;;;;17.56;36.71;95816.91;5009982;28;20045;-76
2021/10/01 12:46:12;;;;;;;7.78;5.32;;;;;;;17.66;36.43;95816.19;5010989;28;20036;-75
2021/10/01 12:48:38;;;;;;;11.30;5.88;;;;;;;17.63;36.28;95806.97;4992421;28;20184;-75
2021/10/01 12:51:22;;;;;;;8.27;5.20;;;;;;;17.65;36.60;95811.97;4991712;28;20494;-75
2021/10/01 12:53:48;;;;;;;13.25;5.00;;;;;;;17.86;36.13;95810.31;4992946;28;20038;-75
2021/10/01 12:56:18;;;;;;;7.18;5.20;;;;;;;17.94;35.50;95805.38;5006515;28;20034;-75
2021/10/01 12:58:44;;;;;;;32.03;6.53;;;;;;;17.75;35.91;95814.72;5008939;28;20044;-75
2021/10/01 13:01:18;;;;;;;7.13;5.88;;;;;;;17.67;35.96;95813.31;5013001;28;20050;-78
2021/10/01 13:03:56;;;;;;;9.63;5.65;;;;;;;17.75;35.93;95813.94;5012276;28;20029;-78
2021/10/01 13:06:31;;;;;;;17.65;5.50;;;;;;;17.82;35.56;95804.78;4963217;28;20158;-78
2021/10/01 13:09:00;;;;;;;22.77;5.38;;;;;;;17.83;35.87;95795.81;4980668;28;20081;-77
2021/10/01 13:11:25;;;;;;;8.88;5.63;;;;;;;17.79;35.81;95805.28;4978129;28;20518;-78
2021/10/01 13:13:51;;;;;;;10.15;5.05;;;;;;;17.69;35.86;95810.47;4986317;28;20074;-78
2021/10/01 13:16:23;;;;;;;8.90;5.70;;;;;;;17.60;35.80;95811.94;4963437;28;20631;-78
2021/10/01 13:19:01;;;;;;;13.23;5.40;;;;;;;17.71;35.89;95800.47;4971126;28;20050;-77